sensor_id;sensor_type;location;lat;lon;timestamp;P1;durP1;ratioP1;P2;durP2;ratioP2
11964;SDS011;6042;41.326;19.826;2022-10-31T00:01:55;9.07;;;3.73;;
11964;SDS011;6042;41.326;19.826;2022-10-31T00:04:23;14.33;;;3.07;;
11964;SDS011;6042;41.326;19.826;2022-10-31T00:06:52;3.20;;;2.80;;
11964;SDS011;6042;41.326;19.826;2022-10-31T00:09:20;7.33;;;2.90;;
11964;SDS011;6042;41.326;19.826;2022-10-31T00:11:48;5.67;;;2.90;;
11964;SDS011;6042;41.326;19.826;2022-10-31T00:14:17;6.23;;;3.20;;
11964;SDS011;6042;41.326;19.826;2022-10-31T00:16:47;3.00;;;2.70;;
11964;SDS011;6042;41.326;19.826;2022-10-31T00:19:16;7.00;;;3.03;;
11964;SDS011;6042;41.326;19.826;2022-10-31T00:21:44;12.37;;;4.00;;
11964;SDS011;6042;41.326;19.826;2022-10-31T00:24:14;10.73;;;3.23;;
11964;SDS011;6042;41.326;19.826;2022-10-31T00:26:43;6.33;;;2.80;;
11964;SDS011;6042;41.326;19.826;2022-10-31T00:29:11;5.53;;;3.17;;
11964;SDS011;6042;41.326;19.826;2022-10-31T00:31:40;7.33;;;2.87;;
11964;SDS011;6042;41.326;19.826;2022-10-31T00:34:10;3.50;;;2.60;;
11964;SDS011;6042;41.326;19.826;2022-10-31T00:36:38;9.80;;;2.90;;
11964;SDS011;6042;41.326;19.826;2022-10-31T00:39:11;4.70;;;2.17;;
11964;SDS011;6042;41.326;19.826;2022-10-31T00:41:40;5.40;;;2.50;;
11964;SDS011;6042;41.326;19.826;2022-10-31T00:44:11;9.03;;;2.97;;
11964;SDS011;6042;41.326;19.826;2022-10-31T00:46:39;4.10;;;2.40;;
11964;SDS011;6042;41.326;19.826;2022-10-31T00:49:09;5.10;;;2.70;;
11964;SDS011;6042;41.326;19.826;2022-10-31T00:51:38;10.90;;;2.67;;
11964;SDS011;6042;41.326;19.826;2022-10-31T00:54:07;4.13;;;2.53;;
11964;SDS011;6042;41.326;19.826;2022-10-31T00:56:36;4.10;;;2.90;;
11964;SDS011;6042;41.326;19.826;2022-10-31T00:59:04;6.67;;;2.87;;
11964;SDS011;6042;41.326;19.826;2022-10-31T01:01:34;4.43;;;2.37;;
11964;SDS011;6042;41.326;19.826;2022-10-31T01:04:03;4.33;;;2.57;;
11964;SDS011;6042;41.326;19.826;2022-10-31T01:06:33;7.03;;;2.37;;
11964;SDS011;6042;41.326;19.826;2022-10-31T01:09:01;9.60;;;2.93;;
11964;SDS011;6042;41.326;19.826;2022-10-31T01:11:30;6.07;;;2.33;;
11964;SDS011;6042;41.326;19.826;2022-10-31T01:13:58;5.33;;;2.60;;
11964;SDS011;6042;41.326;19.826;2022-10-31T01:16:30;9.87;;;2.67;;
11964;SDS011;6042;41.326;19.826;2022-10-31T01:18:58;3.20;;;2.00;;
11964;SDS011;6042;41.326;19.826;2022-10-31T01:21:27;5.53;;;2.60;;
11964;SDS011;6042;41.326;19.826;2022-10-31T01:23:59;11.67;;;2.77;;
11964;SDS011;6042;41.326;19.826;2022-10-31T01:26:29;11.47;;;2.60;;
11964;SDS011;6042;41.326;19.826;2022-10-31T01:28:59;3.33;;;1.93;;
11964;SDS011;6042;41.326;19.826;2022-10-31T01:31:29;6.10;;;2.43;;
11964;SDS011;6042;41.326;19.826;2022-10-31T01:33:59;6.17;;;2.37;;
11964;SDS011;6042;41.326;19.826;2022-10-31T01:36:28;8.97;;;2.70;;
11964;SDS011;6042;41.326;19.826;2022-10-31T01:39:03;3.07;;;2.20;;
11964;SDS011;6042;41.326;19.826;2022-10-31T01:41:34;5.10;;;2.57;;
11964;SDS011;6042;41.326;19.826;2022-10-31T01:47:07;4.53;;;2.50;;
11964;SDS011;6042;41.326;19.826;2022-10-31T01:49:42;7.13;;;2.20;;
11964;SDS011;6042;41.326;19.826;2022-10-31T01:52:16;5.00;;;2.57;;
11964;SDS011;6042;41.326;19.826;2022-10-31T01:54:52;7.53;;;2.80;;
11964;SDS011;6042;41.326;19.826;2022-10-31T01:57:26;14.53;;;3.23;;
11964;SDS011;6042;41.326;19.826;2022-10-31T01:59:57;3.90;;;2.03;;
11964;SDS011;6042;41.326;19.826;2022-10-31T02:02:38;5.17;;;2.50;;
11964;SDS011;6042;41.326;19.826;2022-10-31T02:05:09;56.33;;;7.43;;
11964;SDS011;6042;41.326;19.826;2022-10-31T02:07:43;4.80;;;2.03;;
11964;SDS011;6042;41.326;19.826;2022-10-31T02:10:20;5.67;;;2.40;;
11964;SDS011;6042;41.326;19.826;2022-10-31T02:12:50;6.73;;;2.70;;
11964;SDS011;6042;41.326;19.826;2022-10-31T02:15:22;6.67;;;3.10;;
11964;SDS011;6042;41.326;19.826;2022-10-31T02:17:51;4.53;;;2.47;;
11964;SDS011;6042;41.326;19.826;2022-10-31T02:20:20;12.83;;;2.80;;
11964;SDS011;6042;41.326;19.826;2022-10-31T02:23:02;4.97;;;2.37;;
11964;SDS011;6042;41.326;19.826;2022-10-31T02:25:55;4.13;;;2.30;;
11964;SDS011;6042;41.326;19.826;2022-10-31T02:28:54;7.73;;;2.60;;
11964;SDS011;6042;41.326;19.826;2022-10-31T02:31:40;4.70;;;2.07;;
11964;SDS011;6042;41.326;19.826;2022-10-31T02:34:16;4.73;;;2.50;;
11964;SDS011;6042;41.326;19.826;2022-10-31T02:36:49;3.77;;;2.40;;
11964;SDS011;6042;41.326;19.826;2022-10-31T02:39:23;3.60;;;2.60;;
11964;SDS011;6042;41.326;19.826;2022-10-31T02:41:58;7.47;;;2.70;;
11964;SDS011;6042;41.326;19.826;2022-10-31T02:44:35;6.60;;;2.60;;
11964;SDS011;6042;41.326;19.826;2022-10-31T02:47:08;8.80;;;3.07;;
11964;SDS011;6042;41.326;19.826;2022-10-31T02:49:40;8.17;;;2.70;;
11964;SDS011;6042;41.326;19.826;2022-10-31T02:52:13;6.93;;;2.50;;
11964;SDS011;6042;41.326;19.826;2022-10-31T02:54:45;5.50;;;2.10;;
11964;SDS011;6042;41.326;19.826;2022-10-31T02:57:15;5.77;;;2.57;;
11964;SDS011;6042;41.326;19.826;2022-10-31T02:59:51;4.17;;;2.47;;
11964;SDS011;6042;41.326;19.826;2022-10-31T03:05:28;7.10;;;2.50;;
11964;SDS011;6042;41.326;19.826;2022-10-31T03:08:06;4.63;;;2.40;;
11964;SDS011;6042;41.326;19.826;2022-10-31T03:10:44;6.10;;;2.90;;
11964;SDS011;6042;41.326;19.826;2022-10-31T03:13:21;5.77;;;2.40;;
11964;SDS011;6042;41.326;19.826;2022-10-31T03:16:01;6.30;;;2.97;;
11964;SDS011;6042;41.326;19.826;2022-10-31T03:18:38;4.20;;;2.40;;
11964;SDS011;6042;41.326;19.826;2022-10-31T03:21:09;9.13;;;3.00;;
11964;SDS011;6042;41.326;19.826;2022-10-31T03:23:43;5.93;;;2.43;;
11964;SDS011;6042;41.326;19.826;2022-10-31T03:26:18;3.87;;;2.93;;
11964;SDS011;6042;41.326;19.826;2022-10-31T03:28:50;13.53;;;3.37;;
11964;SDS011;6042;41.326;19.826;2022-10-31T03:31:22;5.13;;;2.57;;
11964;SDS011;6042;41.326;19.826;2022-10-31T03:33:58;6.60;;;2.60;;
11964;SDS011;6042;41.326;19.826;2022-10-31T03:36:29;6.27;;;2.73;;
11964;SDS011;6042;41.326;19.826;2022-10-31T03:39:00;3.03;;;2.53;;
11964;SDS011;6042;41.326;19.826;2022-10-31T03:41:31;6.27;;;2.67;;
11964;SDS011;6042;41.326;19.826;2022-10-31T03:44:10;4.10;;;2.63;;
11964;SDS011;6042;41.326;19.826;2022-10-31T03:46:48;5.97;;;2.73;;
11964;SDS011;6042;41.326;19.826;2022-10-31T03:49:18;4.43;;;2.63;;
11964;SDS011;6042;41.326;19.826;2022-10-31T03:51:49;3.37;;;2.83;;
11964;SDS011;6042;41.326;19.826;2022-10-31T03:54:24;6.47;;;2.97;;
11964;SDS011;6042;41.326;19.826;2022-10-31T03:57:00;3.90;;;2.30;;
11964;SDS011;6042;41.326;19.826;2022-10-31T03:59:35;6.30;;;2.57;;
11964;SDS011;6042;41.326;19.826;2022-10-31T04:02:09;5.60;;;2.67;;
11964;SDS011;6042;41.326;19.826;2022-10-31T04:04:45;9.90;;;2.90;;
11964;SDS011;6042;41.326;19.826;2022-10-31T04:07:16;4.07;;;2.77;;
11964;SDS011;6042;41.326;19.826;2022-10-31T04:09:48;8.57;;;3.10;;
11964;SDS011;6042;41.326;19.826;2022-10-31T04:12:20;7.80;;;3.07;;
11964;SDS011;6042;41.326;19.826;2022-10-31T04:14:51;6.20;;;2.97;;
11964;SDS011;6042;41.326;19.826;2022-10-31T04:17:23;6.57;;;2.43;;
11964;SDS011;6042;41.326;19.826;2022-10-31T04:19:58;7.03;;;2.57;;
11964;SDS011;6042;41.326;19.826;2022-10-31T04:22:28;7.63;;;2.67;;
11964;SDS011;6042;41.326;19.826;2022-10-31T04:24:56;14.03;;;3.47;;
11964;SDS011;6042;41.326;19.826;2022-10-31T04:27:25;6.60;;;3.00;;
11964;SDS011;6042;41.326;19.826;2022-10-31T04:29:55;9.17;;;3.20;;
11964;SDS011;6042;41.326;19.826;2022-10-31T04:32:23;6.50;;;2.63;;
11964;SDS011;6042;41.326;19.826;2022-10-31T04:34:53;3.37;;;2.30;;
11964;SDS011;6042;41.326;19.826;2022-10-31T04:37:23;6.93;;;2.60;;
11964;SDS011;6042;41.326;19.826;2022-10-31T04:39:52;4.00;;;2.80;;
11964;SDS011;6042;41.326;19.826;2022-10-31T04:42:56;5.07;;;2.43;;
11964;SDS011;6042;41.326;19.826;2022-10-31T04:45:27;5.50;;;2.73;;
11964;SDS011;6042;41.326;19.826;2022-10-31T04:47:58;8.80;;;2.53;;
11964;SDS011;6042;41.326;19.826;2022-10-31T04:50:36;5.53;;;2.80;;
11964;SDS011;6042;41.326;19.826;2022-10-31T04:53:06;5.17;;;2.57;;
11964;SDS011;6042;41.326;19.826;2022-10-31T04:55:46;6.00;;;2.57;;
11964;SDS011;6042;41.326;19.826;2022-10-31T04:58:21;7.80;;;2.53;;
11964;SDS011;6042;41.326;19.826;2022-10-31T05:00:51;5.47;;;2.50;;
11964;SDS011;6042;41.326;19.826;2022-10-31T05:03:21;4.13;;;2.20;;
11964;SDS011;6042;41.326;19.826;2022-10-31T05:05:51;5.23;;;2.10;;
11964;SDS011;6042;41.326;19.826;2022-10-31T05:08:19;5.40;;;2.53;;
11964;SDS011;6042;41.326;19.826;2022-10-31T05:10:50;8.00;;;2.20;;
11964;SDS011;6042;41.326;19.826;2022-10-31T05:13:20;8.90;;;2.40;;
11964;SDS011;6042;41.326;19.826;2022-10-31T05:16:23;11.90;;;2.30;;
11964;SDS011;6042;41.326;19.826;2022-10-31T05:19:12;5.87;;;2.63;;
11964;SDS011;6042;41.326;19.826;2022-10-31T05:22:01;7.13;;;3.10;;
11964;SDS011;6042;41.326;19.826;2022-10-31T05:24:32;8.60;;;2.50;;
11964;SDS011;6042;41.326;19.826;2022-10-31T05:27:00;17.23;;;3.07;;
11964;SDS011;6042;41.326;19.826;2022-10-31T05:29:29;9.27;;;2.93;;
11964;SDS011;6042;41.326;19.826;2022-10-31T05:32:01;8.13;;;2.83;;
11964;SDS011;6042;41.326;19.826;2022-10-31T05:34:50;7.23;;;2.30;;
11964;SDS011;6042;41.326;19.826;2022-10-31T05:37:46;5.40;;;2.97;;
11964;SDS011;6042;41.326;19.826;2022-10-31T05:40:16;7.17;;;2.93;;
11964;SDS011;6042;41.326;19.826;2022-10-31T05:42:47;5.77;;;3.13;;
11964;SDS011;6042;41.326;19.826;2022-10-31T05:45:20;9.03;;;2.80;;
11964;SDS011;6042;41.326;19.826;2022-10-31T05:47:55;8.87;;;2.97;;
11964;SDS011;6042;41.326;19.826;2022-10-31T05:50:46;7.13;;;2.50;;
11964;SDS011;6042;41.326;19.826;2022-10-31T05:53:17;8.77;;;3.70;;
11964;SDS011;6042;41.326;19.826;2022-10-31T05:55:46;10.67;;;3.70;;
11964;SDS011;6042;41.326;19.826;2022-10-31T05:58:18;5.20;;;3.00;;
11964;SDS011;6042;41.326;19.826;2022-10-31T06:00:55;10.20;;;3.10;;
11964;SDS011;6042;41.326;19.826;2022-10-31T06:03:24;12.73;;;2.93;;
11964;SDS011;6042;41.326;19.826;2022-10-31T06:05:55;6.17;;;2.93;;
11964;SDS011;6042;41.326;19.826;2022-10-31T06:08:30;7.53;;;3.03;;
11964;SDS011;6042;41.326;19.826;2022-10-31T06:11:03;8.73;;;2.80;;
11964;SDS011;6042;41.326;19.826;2022-10-31T06:13:50;10.60;;;3.23;;
11964;SDS011;6042;41.326;19.826;2022-10-31T06:16:24;4.80;;;2.83;;
11964;SDS011;6042;41.326;19.826;2022-10-31T06:18:55;8.10;;;3.10;;
11964;SDS011;6042;41.326;19.826;2022-10-31T06:21:25;8.40;;;2.70;;
11964;SDS011;6042;41.326;19.826;2022-10-31T06:23:55;8.20;;;2.90;;
11964;SDS011;6042;41.326;19.826;2022-10-31T06:26:50;16.83;;;3.77;;
11964;SDS011;6042;41.326;19.826;2022-10-31T06:29:19;13.40;;;3.47;;
11964;SDS011;6042;41.326;19.826;2022-10-31T06:32:09;4.57;;;2.63;;
11964;SDS011;6042;41.326;19.826;2022-10-31T06:34:41;11.43;;;3.60;;
11964;SDS011;6042;41.326;19.826;2022-10-31T06:37:11;9.93;;;3.30;;
11964;SDS011;6042;41.326;19.826;2022-10-31T06:39:45;17.50;;;4.07;;
11964;SDS011;6042;41.326;19.826;2022-10-31T06:42:15;10.33;;;3.10;;
11964;SDS011;6042;41.326;19.826;2022-10-31T06:44:45;13.43;;;3.90;;
11964;SDS011;6042;41.326;19.826;2022-10-31T06:47:42;5.07;;;3.00;;
11964;SDS011;6042;41.326;19.826;2022-10-31T06:50:48;27.13;;;4.67;;
11964;SDS011;6042;41.326;19.826;2022-10-31T06:53:22;19.77;;;4.83;;
11964;SDS011;6042;41.326;19.826;2022-10-31T06:55:53;23.67;;;5.13;;
11964;SDS011;6042;41.326;19.826;2022-10-31T06:58:23;6.60;;;2.70;;
11964;SDS011;6042;41.326;19.826;2022-10-31T07:00:58;14.67;;;4.10;;
11964;SDS011;6042;41.326;19.826;2022-10-31T07:03:27;7.40;;;3.33;;
11964;SDS011;6042;41.326;19.826;2022-10-31T07:05:56;12.40;;;3.47;;
11964;SDS011;6042;41.326;19.826;2022-10-31T07:08:26;11.33;;;3.20;;
11964;SDS011;6042;41.326;19.826;2022-10-31T07:10:56;16.13;;;4.50;;
11964;SDS011;6042;41.326;19.826;2022-10-31T07:13:27;8.73;;;2.90;;
11964;SDS011;6042;41.326;19.826;2022-10-31T07:16:04;14.07;;;3.60;;
11964;SDS011;6042;41.326;19.826;2022-10-31T07:18:35;37.53;;;6.03;;
11964;SDS011;6042;41.326;19.826;2022-10-31T07:21:04;22.23;;;3.83;;
11964;SDS011;6042;41.326;19.826;2022-10-31T07:23:33;28.77;;;5.00;;
11964;SDS011;6042;41.326;19.826;2022-10-31T07:26:22;26.77;;;5.00;;
11964;SDS011;6042;41.326;19.826;2022-10-31T07:28:52;20.13;;;5.40;;
11964;SDS011;6042;41.326;19.826;2022-10-31T07:31:23;14.63;;;3.67;;
11964;SDS011;6042;41.326;19.826;2022-10-31T07:33:58;8.83;;;3.43;;
11964;SDS011;6042;41.326;19.826;2022-10-31T07:36:27;10.40;;;3.30;;
11964;SDS011;6042;41.326;19.826;2022-10-31T07:39:01;11.90;;;3.30;;
11964;SDS011;6042;41.326;19.826;2022-10-31T07:41:34;15.03;;;3.43;;
11964;SDS011;6042;41.326;19.826;2022-10-31T07:44:03;21.33;;;3.97;;
11964;SDS011;6042;41.326;19.826;2022-10-31T07:47:11;15.00;;;3.67;;
11964;SDS011;6042;41.326;19.826;2022-10-31T07:50:06;10.67;;;3.10;;
11964;SDS011;6042;41.326;19.826;2022-10-31T07:53:14;10.97;;;3.83;;
11964;SDS011;6042;41.326;19.826;2022-10-31T07:55:52;31.33;;;4.97;;
11964;SDS011;6042;41.326;19.826;2022-10-31T07:58:29;8.70;;;3.10;;
11964;SDS011;6042;41.326;19.826;2022-10-31T08:00:58;12.20;;;3.77;;
11964;SDS011;6042;41.326;19.826;2022-10-31T08:03:37;13.53;;;3.57;;
11964;SDS011;6042;41.326;19.826;2022-10-31T08:06:08;7.50;;;3.00;;
11964;SDS011;6042;41.326;19.826;2022-10-31T08:08:44;19.67;;;3.80;;
11964;SDS011;6042;41.326;19.826;2022-10-31T08:11:13;12.33;;;3.67;;
11964;SDS011;6042;41.326;19.826;2022-10-31T08:13:43;8.77;;;2.87;;
11964;SDS011;6042;41.326;19.826;2022-10-31T08:16:13;17.13;;;3.63;;
11964;SDS011;6042;41.326;19.826;2022-10-31T08:18:50;16.83;;;3.90;;
11964;SDS011;6042;41.326;19.826;2022-10-31T08:21:21;17.30;;;4.30;;
11964;SDS011;6042;41.326;19.826;2022-10-31T08:23:50;14.60;;;3.50;;
11964;SDS011;6042;41.326;19.826;2022-10-31T08:26:22;11.33;;;3.83;;
11964;SDS011;6042;41.326;19.826;2022-10-31T08:28:54;11.20;;;4.20;;
11964;SDS011;6042;41.326;19.826;2022-10-31T08:31:26;18.77;;;5.00;;
11964;SDS011;6042;41.326;19.826;2022-10-31T08:34:38;13.27;;;3.83;;
11964;SDS011;6042;41.326;19.826;2022-10-31T08:37:26;16.63;;;6.00;;
11964;SDS011;6042;41.326;19.826;2022-10-31T08:39:55;9.53;;;5.13;;
11964;SDS011;6042;41.326;19.826;2022-10-31T08:42:23;11.37;;;5.33;;
11964;SDS011;6042;41.326;19.826;2022-10-31T08:44:53;15.23;;;4.57;;
11964;SDS011;6042;41.326;19.826;2022-10-31T08:47:22;13.57;;;4.70;;
11964;SDS011;6042;41.326;19.826;2022-10-31T08:49:52;8.07;;;3.70;;
11964;SDS011;6042;41.326;19.826;2022-10-31T08:52:22;7.50;;;3.20;;
11964;SDS011;6042;41.326;19.826;2022-10-31T08:55:13;9.70;;;4.00;;
11964;SDS011;6042;41.326;19.826;2022-10-31T08:58:01;10.80;;;4.50;;
11964;SDS011;6042;41.326;19.826;2022-10-31T09:00:40;12.10;;;5.60;;
11964;SDS011;6042;41.326;19.826;2022-10-31T09:03:15;13.87;;;6.37;;
11964;SDS011;6042;41.326;19.826;2022-10-31T09:05:45;17.03;;;7.63;;
11964;SDS011;6042;41.326;19.826;2022-10-31T09:08:14;22.77;;;8.03;;
11964;SDS011;6042;41.326;19.826;2022-10-31T09:10:45;18.93;;;8.20;;
11964;SDS011;6042;41.326;19.826;2022-10-31T09:13:19;9.87;;;4.97;;
11964;SDS011;6042;41.326;19.826;2022-10-31T09:16:20;17.03;;;7.03;;
11964;SDS011;6042;41.326;19.826;2022-10-31T09:18:49;15.10;;;6.37;;
11964;SDS011;6042;41.326;19.826;2022-10-31T09:21:18;15.20;;;5.83;;
11964;SDS011;6042;41.326;19.826;2022-10-31T09:23:47;14.43;;;5.77;;
11964;SDS011;6042;41.326;19.826;2022-10-31T09:26:16;11.57;;;5.93;;
11964;SDS011;6042;41.326;19.826;2022-10-31T09:28:54;22.27;;;7.07;;
11964;SDS011;6042;41.326;19.826;2022-10-31T09:31:26;16.50;;;6.80;;
11964;SDS011;6042;41.326;19.826;2022-10-31T09:34:02;18.20;;;6.60;;
11964;SDS011;6042;41.326;19.826;2022-10-31T09:36:37;12.90;;;5.70;;
11964;SDS011;6042;41.326;19.826;2022-10-31T09:39:10;12.27;;;5.87;;
11964;SDS011;6042;41.326;19.826;2022-10-31T09:44:44;10.27;;;6.17;;
11964;SDS011;6042;41.326;19.826;2022-10-31T09:47:57;10.27;;;6.37;;
11964;SDS011;6042;41.326;19.826;2022-10-31T09:50:58;15.53;;;6.33;;
11964;SDS011;6042;41.326;19.826;2022-10-31T09:53:38;13.67;;;5.93;;
11964;SDS011;6042;41.326;19.826;2022-10-31T09:56:17;11.47;;;6.17;;
11964;SDS011;6042;41.326;19.826;2022-10-31T09:58:49;11.03;;;5.80;;
11964;SDS011;6042;41.326;19.826;2022-10-31T10:01:28;18.50;;;6.43;;
11964;SDS011;6042;41.326;19.826;2022-10-31T10:04:14;14.30;;;7.40;;
11964;SDS011;6042;41.326;19.826;2022-10-31T10:07:02;15.60;;;6.03;;
11964;SDS011;6042;41.326;19.826;2022-10-31T10:09:44;15.53;;;6.83;;
11964;SDS011;6042;41.326;19.826;2022-10-31T10:12:36;9.70;;;5.80;;
11964;SDS011;6042;41.326;19.826;2022-10-31T10:15:24;13.87;;;5.93;;
11964;SDS011;6042;41.326;19.826;2022-10-31T10:18:12;8.30;;;5.43;;
11964;SDS011;6042;41.326;19.826;2022-10-31T10:20:54;11.30;;;5.10;;
11964;SDS011;6042;41.326;19.826;2022-10-31T10:23:34;11.80;;;5.70;;
11964;SDS011;6042;41.326;19.826;2022-10-31T10:26:15;7.20;;;4.60;;
11964;SDS011;6042;41.326;19.826;2022-10-31T10:28:47;13.17;;;5.40;;
11964;SDS011;6042;41.326;19.826;2022-10-31T10:31:20;17.03;;;5.60;;
11964;SDS011;6042;41.326;19.826;2022-10-31T10:33:56;11.70;;;5.10;;
11964;SDS011;6042;41.326;19.826;2022-10-31T10:36:32;15.50;;;5.63;;
11964;SDS011;6042;41.326;19.826;2022-10-31T10:39:08;13.13;;;5.83;;
11964;SDS011;6042;41.326;19.826;2022-10-31T10:41:43;13.70;;;5.67;;
11964;SDS011;6042;41.326;19.826;2022-10-31T10:44:28;13.87;;;5.27;;
11964;SDS011;6042;41.326;19.826;2022-10-31T10:47:15;13.10;;;4.73;;
11964;SDS011;6042;41.326;19.826;2022-10-31T10:50:01;18.83;;;5.33;;
11964;SDS011;6042;41.326;19.826;2022-10-31T10:52:38;13.30;;;5.00;;
11964;SDS011;6042;41.326;19.826;2022-10-31T10:55:18;10.30;;;3.97;;
11964;SDS011;6042;41.326;19.826;2022-10-31T10:57:58;7.67;;;3.60;;
11964;SDS011;6042;41.326;19.826;2022-10-31T11:00:32;7.73;;;4.27;;
11964;SDS011;6042;41.326;19.826;2022-10-31T11:03:04;13.03;;;4.13;;
11964;SDS011;6042;41.326;19.826;2022-10-31T11:05:33;10.80;;;4.37;;
11964;SDS011;6042;41.326;19.826;2022-10-31T11:08:06;8.60;;;4.00;;
11964;SDS011;6042;41.326;19.826;2022-10-31T11:10:35;13.30;;;4.73;;
11964;SDS011;6042;41.326;19.826;2022-10-31T11:13:05;8.77;;;4.60;;
11964;SDS011;6042;41.326;19.826;2022-10-31T11:15:51;10.83;;;4.40;;
11964;SDS011;6042;41.326;19.826;2022-10-31T11:18:25;11.67;;;4.73;;
11964;SDS011;6042;41.326;19.826;2022-10-31T11:20:55;14.37;;;4.63;;
11964;SDS011;6042;41.326;19.826;2022-10-31T11:23:27;11.57;;;4.40;;
11964;SDS011;6042;41.326;19.826;2022-10-31T11:25:57;13.40;;;4.57;;
11964;SDS011;6042;41.326;19.826;2022-10-31T11:28:27;24.27;;;6.07;;
11964;SDS011;6042;41.326;19.826;2022-10-31T11:30:57;7.77;;;4.40;;
11964;SDS011;6042;41.326;19.826;2022-10-31T11:33:29;16.73;;;4.93;;
11964;SDS011;6042;41.326;19.826;2022-10-31T11:36:00;12.03;;;5.20;;
11964;SDS011;6042;41.326;19.826;2022-10-31T11:38:33;17.27;;;5.90;;
11964;SDS011;6042;41.326;19.826;2022-10-31T11:41:11;28.70;;;6.93;;
11964;SDS011;6042;41.326;19.826;2022-10-31T11:43:45;43.27;;;8.73;;
11964;SDS011;6042;41.326;19.826;2022-10-31T11:46:19;18.97;;;6.10;;
11964;SDS011;6042;41.326;19.826;2022-10-31T11:48:53;10.23;;;5.03;;
11964;SDS011;6042;41.326;19.826;2022-10-31T11:51:24;11.73;;;5.20;;
11964;SDS011;6042;41.326;19.826;2022-10-31T11:53:57;13.77;;;5.30;;
11964;SDS011;6042;41.326;19.826;2022-10-31T11:56:37;18.87;;;6.07;;
11964;SDS011;6042;41.326;19.826;2022-10-31T11:59:14;13.20;;;5.93;;
11964;SDS011;6042;41.326;19.826;2022-10-31T12:01:47;25.70;;;7.30;;
11964;SDS011;6042;41.326;19.826;2022-10-31T12:04:16;24.03;;;7.43;;
11964;SDS011;6042;41.326;19.826;2022-10-31T12:06:45;24.40;;;6.90;;
11964;SDS011;6042;41.326;19.826;2022-10-31T12:09:20;15.80;;;6.50;;
11964;SDS011;6042;41.326;19.826;2022-10-31T12:11:53;16.02;;;6.45;;
11964;SDS011;6042;41.326;19.826;2022-10-31T12:14:45;39.35;;;9.55;;
11964;SDS011;6042;41.326;19.826;2022-10-31T12:17:20;13.68;;;6.72;;
11964;SDS011;6042;41.326;19.826;2022-10-31T12:19:56;22.17;;;7.93;;
11964;SDS011;6042;41.326;19.826;2022-10-31T12:22:34;20.65;;;7.28;;
11964;SDS011;6042;41.326;19.826;2022-10-31T12:25:14;16.17;;;7.07;;
11964;SDS011;6042;41.326;19.826;2022-10-31T12:28:03;20.33;;;7.32;;
11964;SDS011;6042;41.326;19.826;2022-10-31T12:30:56;16.70;;;7.25;;
11964;SDS011;6042;41.326;19.826;2022-10-31T12:33:41;12.85;;;6.68;;
11964;SDS011;6042;41.326;19.826;2022-10-31T12:36:26;17.08;;;7.15;;
11964;SDS011;6042;41.326;19.826;2022-10-31T12:39:12;11.18;;;6.15;;
11964;SDS011;6042;41.326;19.826;2022-10-31T12:41:55;13.38;;;7.25;;
11964;SDS011;6042;41.326;19.826;2022-10-31T12:44:34;11.00;;;6.13;;
11964;SDS011;6042;41.326;19.826;2022-10-31T12:47:36;20.35;;;7.53;;
11964;SDS011;6042;41.326;19.826;2022-10-31T12:50:34;11.88;;;7.05;;
11964;SDS011;6042;41.326;19.826;2022-10-31T12:53:18;14.60;;;7.45;;
11964;SDS011;6042;41.326;19.826;2022-10-31T12:55:59;16.92;;;7.28;;
11964;SDS011;6042;41.326;19.826;2022-10-31T12:58:43;17.98;;;7.28;;
11964;SDS011;6042;41.326;19.826;2022-10-31T13:01:16;21.67;;;7.15;;
11964;SDS011;6042;41.326;19.826;2022-10-31T13:03:48;16.95;;;6.63;;
11964;SDS011;6042;41.326;19.826;2022-10-31T13:06:21;16.65;;;7.35;;
11964;SDS011;6042;41.326;19.826;2022-10-31T13:08:55;14.38;;;6.75;;
11964;SDS011;6042;41.326;19.826;2022-10-31T13:11:28;27.20;;;7.97;;
11964;SDS011;6042;41.326;19.826;2022-10-31T13:14:02;15.85;;;7.18;;
11964;SDS011;6042;41.326;19.826;2022-10-31T13:16:36;25.38;;;8.45;;
11964;SDS011;6042;41.326;19.826;2022-10-31T13:19:09;30.52;;;9.68;;
11964;SDS011;6042;41.326;19.826;2022-10-31T13:21:47;26.65;;;9.80;;
11964;SDS011;6042;41.326;19.826;2022-10-31T13:24:30;26.10;;;9.43;;
11964;SDS011;6042;41.326;19.826;2022-10-31T13:27:04;14.25;;;6.63;;
11964;SDS011;6042;41.326;19.826;2022-10-31T13:29:42;17.02;;;7.07;;
11964;SDS011;6042;41.326;19.826;2022-10-31T13:39:18;13.80;;;7.10;;
11964;SDS011;6042;41.326;19.826;2022-10-31T13:41:54;16.37;;;7.10;;
11964;SDS011;6042;41.326;19.826;2022-10-31T13:44:29;16.17;;;7.60;;
11964;SDS011;6042;41.326;19.826;2022-10-31T13:47:20;16.90;;;7.43;;
11964;SDS011;6042;41.326;19.826;2022-10-31T13:49:50;24.67;;;8.27;;
11964;SDS011;6042;41.326;19.826;2022-10-31T13:52:24;34.80;;;12.50;;
11964;SDS011;6042;41.326;19.826;2022-10-31T13:54:55;23.10;;;12.17;;
11964;SDS011;6042;41.326;19.826;2022-10-31T13:57:26;23.70;;;7.57;;
11964;SDS011;6042;41.326;19.826;2022-10-31T14:00:05;9.23;;;6.10;;
11964;SDS011;6042;41.326;19.826;2022-10-31T14:02:50;14.07;;;8.30;;
11964;SDS011;6042;41.326;19.826;2022-10-31T14:05:22;13.37;;;5.80;;
11964;SDS011;6042;41.326;19.826;2022-10-31T14:07:52;11.87;;;5.33;;
11964;SDS011;6042;41.326;19.826;2022-10-31T14:10:24;11.73;;;6.60;;
11964;SDS011;6042;41.326;19.826;2022-10-31T14:13:03;10.53;;;5.10;;
11964;SDS011;6042;41.326;19.826;2022-10-31T14:15:33;11.23;;;4.60;;
11964;SDS011;6042;41.326;19.826;2022-10-31T14:18:03;7.13;;;4.20;;
11964;SDS011;6042;41.326;19.826;2022-10-31T14:20:36;12.13;;;5.33;;
11964;SDS011;6042;41.326;19.826;2022-10-31T14:23:13;18.60;;;6.73;;
11964;SDS011;6042;41.326;19.826;2022-10-31T14:29:24;7.93;;;4.87;;
11964;SDS011;6042;41.326;19.826;2022-10-31T14:31:56;10.87;;;4.20;;
11964;SDS011;6042;41.326;19.826;2022-10-31T14:34:29;7.13;;;4.40;;
11964;SDS011;6042;41.326;19.826;2022-10-31T14:40:25;14.80;;;4.17;;
11964;SDS011;6042;41.326;19.826;2022-10-31T14:43:04;12.83;;;5.07;;
11964;SDS011;6042;41.326;19.826;2022-10-31T14:45:49;15.17;;;4.80;;
11964;SDS011;6042;41.326;19.826;2022-10-31T14:48:29;15.93;;;5.30;;
11964;SDS011;6042;41.326;19.826;2022-10-31T14:51:11;27.03;;;7.60;;
11964;SDS011;6042;41.326;19.826;2022-10-31T14:53:44;28.90;;;7.17;;
11964;SDS011;6042;41.326;19.826;2022-10-31T14:56:19;23.40;;;6.87;;
11964;SDS011;6042;41.326;19.826;2022-10-31T14:58:52;11.03;;;5.73;;
11964;SDS011;6042;41.326;19.826;2022-10-31T15:01:24;27.03;;;7.33;;
11964;SDS011;6042;41.326;19.826;2022-10-31T15:03:57;14.10;;;6.07;;
11964;SDS011;6042;41.326;19.826;2022-10-31T15:06:49;10.80;;;5.70;;
11964;SDS011;6042;41.326;19.826;2022-10-31T15:09:21;10.20;;;5.70;;
11964;SDS011;6042;41.326;19.826;2022-10-31T15:11:50;13.83;;;6.17;;
11964;SDS011;6042;41.326;19.826;2022-10-31T15:14:25;14.33;;;6.27;;
11964;SDS011;6042;41.326;19.826;2022-10-31T15:16:55;10.70;;;6.57;;
11964;SDS011;6042;41.326;19.826;2022-10-31T15:19:26;21.03;;;7.53;;
11964;SDS011;6042;41.326;19.826;2022-10-31T15:21:57;49.57;;;9.27;;
11964;SDS011;6042;41.326;19.826;2022-10-31T15:24:27;17.53;;;8.57;;
11964;SDS011;6042;41.326;19.826;2022-10-31T15:27:01;31.43;;;8.90;;
11964;SDS011;6042;41.326;19.826;2022-10-31T15:29:32;20.40;;;8.53;;
11964;SDS011;6042;41.326;19.826;2022-10-31T15:32:08;24.33;;;8.60;;
11964;SDS011;6042;41.326;19.826;2022-10-31T15:34:46;17.70;;;8.57;;
11964;SDS011;6042;41.326;19.826;2022-10-31T15:37:15;16.73;;;8.60;;
11964;SDS011;6042;41.326;19.826;2022-10-31T15:39:46;15.63;;;7.67;;
11964;SDS011;6042;41.326;19.826;2022-10-31T15:42:20;15.23;;;7.90;;
11964;SDS011;6042;41.326;19.826;2022-10-31T15:44:53;16.73;;;6.80;;
11964;SDS011;6042;41.326;19.826;2022-10-31T15:47:28;13.43;;;6.37;;
11964;SDS011;6042;41.326;19.826;2022-10-31T15:49:59;13.67;;;6.90;;
11964;SDS011;6042;41.326;19.826;2022-10-31T15:52:29;14.37;;;6.63;;